Grampian Pride — GDDK — position and weather

sailwx.info

Track history (hours):
 
Tides and Currents Weather Stations Pressure Air Temp Water Temp Dewpoint Dewpoint Depression Visibility Wind Speed Wind Dir Waves Ship Positions

Grampian Pride

Last reported at 2015-Apr-17 01:33 UTC. Time now 2015-Apr-21 01:25 UTC.
Position N 57°26' W 001°19'.

Length 42 m; draft 4.8 m.

Type: SAR. MMSI: 232843000.

Date/timePositionNaut miles runAvg speedWind from/ knotsBaromVisibWave heightAir tempDewpointWater temp
2015-Apr-17 01:33N 57°26' W 001°19'4 4.0
2015-Apr-17 00:33N 57°22' W 001°23'4 3.6
2015-Apr-16 23:34N 57°20' W 001°27'3 3.3
2015-Apr-16 22:34N 57°17' W 001°32'4 3.6
2015-Apr-16 21:33N 57°16' W 001°38'4 3.7
2015-Apr-16 20:33N 57°15' W 001°45'4 4.0
2015-Apr-16 19:33N 57°14' W 001°52'8 7.8
2015-Apr-16 18:33N 57°09' W 002°03'2 1.2
2015-Apr-16 17:14N 57°09' W 002°06'0 0.0
2015-Apr-16 16:32N 57°09' W 002°06'0 0.0
2015-Apr-16 15:26N 57°09' W 002°06'0 0.0
2015-Apr-16 14:26N 57°09' W 002°06'0 0.0
2015-Apr-16 12:32N 57°09' W 002°06'0 0.0
2015-Apr-16 11:32N 57°09' W 002°06'0 0.0
2015-Apr-16 10:26N 57°09' W 002°06'0 0.0
2015-Apr-16 08:32N 57°09' W 002°06'0 0.0
2015-Apr-16 07:32N 57°09' W 002°06'0 0.0
2015-Apr-16 06:32N 57°09' W 002°06'0 0.0
2015-Apr-16 05:26N 57°09' W 002°06'0 0.0
2015-Apr-16 04:14N 57°09' W 002°06'0 0.0
2015-Apr-16 03:26N 57°09' W 002°06'0 0.0
2015-Apr-16 02:32N 57°09' W 002°06'0 0.0
2015-Apr-16 01:26N 57°09' W 002°06'0 0.0
2015-Apr-16 00:32N 57°09' W 002°06'0 0.0
2015-Apr-15 23:26N 57°09' W 002°06'0 0.0
2015-Apr-15 22:32N 57°09' W 002°06'0 0.0
2015-Apr-15 18:26N 57°09' W 002°06'0 0.0
2015-Apr-15 16:32N 57°09' W 002°06'0 0.0
2015-Apr-15 14:32N 57°09' W 002°06'0 0.0
2015-Apr-15 13:32N 57°09' W 002°06'0 0.0
2015-Apr-15 12:32N 57°09' W 002°06'0 0.0
2015-Apr-15 11:14N 57°09' W 002°06'0 0.0
2015-Apr-15 10:26N 57°09' W 002°06'0 0.0
2015-Apr-15 09:32N 57°09' W 002°06'0 0.0
2015-Apr-15 08:32N 57°09' W 002°06'0 0.0
2015-Apr-15 07:32N 57°09' W 002°06'0 0.0
2015-Apr-15 06:32N 57°09' W 002°06'0 0.0
2015-Apr-15 05:32N 57°09' W 002°06'0 0.0
2015-Apr-15 04:32N 57°09' W 002°06'0 0.0
2015-Apr-15 03:29N 57°09' W 002°06'0 0.0
2015-Apr-15 02:32N 57°09' W 002°06'0 0.0
2015-Apr-15 01:29N 57°09' W 002°06'0 0.0
2015-Apr-15 00:33N 57°09' W 002°06'0 0.0
2015-Apr-14 23:33N 57°09' W 002°06'0 0.0
2015-Apr-14 22:33N 57°09' W 002°06'0 0.0
2015-Apr-14 21:33N 57°09' W 002°06'0 0.0
2015-Apr-14 20:33N 57°09' W 002°06'2 2.2
2015-Apr-14 19:33N 57°10' W 002°02'0 0.4
2015-Apr-14 18:31N 57°10' W 002°01'7 3.5
2015-Apr-14 16:26N 57°15' W 001°52'6 7.0
2015-Apr-14 15:33N 57°19' W 001°44'6 6.4
2015-Apr-14 14:33N 57°24' W 001°36'5 4.8
2015-Apr-14 13:33N 57°27' W 001°29'6 5.9
2015-Apr-14 12:33N 57°32' W 001°21'5 4.7
2015-Apr-14 11:33N 57°34' W 001°14'  
Track history (hours):
 
Tides and Currents Weather Stations Pressure Air Temp Water Temp Dewpoint Dewpoint Depression Visibility Wind Speed Wind Dir Waves Ship Positions

Grampian Pride

Last reported at 2015-Apr-17 01:33 UTC. Time now 2015-Apr-21 01:25 UTC.
Position N 57°26' W 001°19'.

Length 42 m; draft 4.8 m.

Type: SAR. MMSI: 232843000.

Date/timePositionNaut miles runAvg speedWind from/ knotsBaromVisibWave heightAir tempDewpointWater temp
2015-Apr-17 01:33N 57°26' W 001°19'4 4.0
2015-Apr-17 00:33N 57°22' W 001°23'4 3.6
2015-Apr-16 23:34N 57°20' W 001°27'3 3.3
2015-Apr-16 22:34N 57°17' W 001°32'4 3.6
2015-Apr-16 21:33N 57°16' W 001°38'4 3.7
2015-Apr-16 20:33N 57°15' W 001°45'4 4.0
2015-Apr-16 19:33N 57°14' W 001°52'8 7.8
2015-Apr-16 18:33N 57°09' W 002°03'2 1.2
2015-Apr-16 17:14N 57°09' W 002°06'0 0.0
2015-Apr-16 16:32N 57°09' W 002°06'0 0.0
2015-Apr-16 15:26N 57°09' W 002°06'0 0.0
2015-Apr-16 14:26N 57°09' W 002°06'0 0.0
2015-Apr-16 12:32N 57°09' W 002°06'0 0.0
2015-Apr-16 11:32N 57°09' W 002°06'0 0.0
2015-Apr-16 10:26N 57°09' W 002°06'0 0.0
2015-Apr-16 08:32N 57°09' W 002°06'0 0.0
2015-Apr-16 07:32N 57°09' W 002°06'0 0.0
2015-Apr-16 06:32N 57°09' W 002°06'0 0.0
2015-Apr-16 05:26N 57°09' W 002°06'0 0.0
2015-Apr-16 04:14N 57°09' W 002°06'0 0.0
2015-Apr-16 03:26N 57°09' W 002°06'0 0.0
2015-Apr-16 02:32N 57°09' W 002°06'0 0.0
2015-Apr-16 01:26N 57°09' W 002°06'0 0.0
2015-Apr-16 00:32N 57°09' W 002°06'0 0.0
2015-Apr-15 23:26N 57°09' W 002°06'0 0.0
2015-Apr-15 22:32N 57°09' W 002°06'0 0.0
2015-Apr-15 18:26N 57°09' W 002°06'0 0.0
2015-Apr-15 16:32N 57°09' W 002°06'0 0.0
2015-Apr-15 14:32N 57°09' W 002°06'0 0.0
2015-Apr-15 13:32N 57°09' W 002°06'0 0.0
2015-Apr-15 12:32N 57°09' W 002°06'0 0.0
2015-Apr-15 11:14N 57°09' W 002°06'0 0.0
2015-Apr-15 10:26N 57°09' W 002°06'0 0.0
2015-Apr-15 09:32N 57°09' W 002°06'0 0.0
2015-Apr-15 08:32N 57°09' W 002°06'0 0.0
2015-Apr-15 07:32N 57°09' W 002°06'0 0.0
2015-Apr-15 06:32N 57°09' W 002°06'0 0.0
2015-Apr-15 05:32N 57°09' W 002°06'0 0.0
2015-Apr-15 04:32N 57°09' W 002°06'0 0.0
2015-Apr-15 03:29N 57°09' W 002°06'0 0.0
2015-Apr-15 02:32N 57°09' W 002°06'0 0.0
2015-Apr-15 01:29N 57°09' W 002°06'0 0.0
2015-Apr-15 00:33N 57°09' W 002°06'0 0.0
2015-Apr-14 23:33N 57°09' W 002°06'0 0.0
2015-Apr-14 22:33N 57°09' W 002°06'0 0.0
2015-Apr-14 21:33N 57°09' W 002°06'0 0.0
2015-Apr-14 20:33N 57°09' W 002°06'2 2.2
2015-Apr-14 19:33N 57°10' W 002°02'0 0.4
2015-Apr-14 18:31N 57°10' W 002°01'7 3.5
2015-Apr-14 16:26N 57°15' W 001°52'6 7.0
2015-Apr-14 15:33N 57°19' W 001°44'6 6.4
2015-Apr-14 14:33N 57°24' W 001°36'5 4.8
2015-Apr-14 13:33N 57°27' W 001°29'6 5.9
2015-Apr-14 12:33N 57°32' W 001°21'5 4.7
2015-Apr-14 11:33N 57°34' W 001°14'  

Dump ship's entire track history